Time,TemperatureF,DewpointF,PressureIn,WindDirection,WindDirectionDegrees,WindSpeedMPH,WindSpeedGustMPH,Humidity,HourlyPrecipIn,Conditions,Clouds,dailyrainin,SoftwareType,DateUTC
2013-01-03 00:07:00,65.0,62.0,30.05,WSW,245,0.0,0.0,90,0.00,,---,0.00,VWS V13.01,2013-01-03 05:07:00,
2013-01-03 00:09:00,65.1,62.1,30.05,WSW,245,0.0,0.0,90,0.00,,---,0.00,VWS V13.01,2013-01-03 05:09:00,
2013-01-03 00:37:00,64.6,61.9,30.04,WSW,245,0.0,0.0,91,0.00,,---,0.00,VWS V13.01,2013-01-03 05:37:00,
2013-01-03 00:39:00,64.8,62.1,30.04,WSW,245,0.0,0.0,91,0.00,,---,0.00,VWS V13.01,2013-01-03 05:39:00,
2013-01-03 01:07:00,63.2,60.2,30.05,WSW,245,0.0,0.0,90,0.00,,---,0.00,VWS V13.01,2013-01-03 06:07:00,
2013-01-03 01:09:00,63.5,60.8,30.04,WSW,245,0.0,0.0,91,0.00,,---,0.00,VWS V13.01,2013-01-03 06:09:00,
2013-01-03 01:37:00,62.0,59.7,30.05,WSW,245,0.0,0.0,92,0.00,,---,0.00,VWS V13.01,2013-01-03 06:37:00,
2013-01-03 01:39:00,62.3,59.6,30.05,WSW,245,0.0,0.0,91,0.00,,---,0.00,VWS V13.01,2013-01-03 06:39:00,
2013-01-03 02:07:00,60.8,58.5,30.04,WSW,245,0.0,0.0,92,0.00,,---,0.00,VWS V13.01,2013-01-03 07:07:00,
2013-01-03 02:09:00,61.1,58.8,30.05,WSW,245,0.0,0.0,92,0.00,,---,0.00,VWS V13.01,2013-01-03 07:09:00,
2013-01-03 02:37:00,60.8,58.8,30.04,WSW,245,0.0,0.0,93,0.00,,---,0.00,VWS V13.01,2013-01-03 07:37:00,
2013-01-03 02:39:00,60.7,58.7,30.04,WSW,245,0.0,0.0,93,0.00,,---,0.00,VWS V13.01,2013-01-03 07:39:00,
2013-01-03 03:07:00,59.6,57.6,30.04,WSW,245,0.0,0.0,93,0.00,,---,0.00,VWS V13.01,2013-01-03 08:07:00,
2013-01-03 03:09:00,59.8,57.8,30.04,WSW,245,0.0,0.0,93,0.00,,---,0.00,VWS V13.01,2013-01-03 08:09:00,
2013-01-03 03:37:00,59.5,57.5,30.04,WSW,245,0.0,0.0,93,0.00,,---,0.00,VWS V13.01,2013-01-03 08:37:00,
2013-01-03 03:39:00,59.4,57.4,30.04,WSW,245,0.0,0.0,93,0.00,,---,0.00,VWS V13.01,2013-01-03 08:39:00,
2013-01-03 04:07:00,59.6,57.6,30.04,WSW,245,0.0,0.0,93,0.00,,---,0.00,VWS V13.01,2013-01-03 09:07:00,
2013-01-03 04:09:00,59.7,57.7,30.04,WSW,245,0.0,0.0,93,0.00,,---,0.00,VWS V13.01,2013-01-03 09:09:00,
2013-01-03 04:37:00,60.3,58.6,30.04,WSW,245,0.0,0.0,94,0.00,,---,0.00,VWS V13.01,2013-01-03 09:37:00,
2013-01-03 04:39:00,60.1,58.4,30.04,WSW,245,0.0,0.0,94,0.00,,---,0.00,VWS V13.01,2013-01-03 09:39:00,
2013-01-03 05:07:00,59.7,58.0,30.04,WSW,245,0.0,0.0,94,0.00,,---,0.00,VWS V13.01,2013-01-03 10:07:00,
2013-01-03 05:09:00,59.9,58.2,30.04,WSW,245,0.0,0.0,94,0.00,,---,0.00,VWS V13.01,2013-01-03 10:09:00,
2013-01-03 05:37:00,59.9,58.2,30.04,WSW,245,0.0,0.0,94,0.00,,---,0.00,VWS V13.01,2013-01-03 10:37:00,
2013-01-03 05:39:00,59.9,58.2,30.04,WSW,245,0.0,0.0,94,0.00,,---,0.00,VWS V13.01,2013-01-03 10:39:00,
2013-01-03 06:07:00,59.9,58.5,30.05,WSW,245,0.0,0.0,95,0.00,,---,0.00,VWS V13.01,2013-01-03 11:07:00,
2013-01-03 06:09:00,60.1,58.7,30.05,WSW,245,0.0,0.0,95,0.00,,---,0.00,VWS V13.01,2013-01-03 11:09:00,
2013-01-03 06:37:00,59.4,58.0,30.06,WSW,245,0.0,0.0,95,0.00,,---,0.00,VWS V13.01,2013-01-03 11:37:00,
2013-01-03 06:39:00,59.5,58.1,30.06,WSW,245,0.0,0.0,95,0.00,,---,0.00,VWS V13.01,2013-01-03 11:39:00,
2013-01-03 07:07:00,59.0,57.6,30.07,WSW,245,0.0,0.0,95,0.00,,---,0.00,VWS V13.01,2013-01-03 12:07:00,
2013-01-03 07:09:00,59.2,57.8,30.07,WSW,245,0.0,0.0,95,0.00,,---,0.00,VWS V13.01,2013-01-03 12:09:00,
2013-01-03 07:37:00,59.3,57.9,30.08,WSW,245,0.0,0.0,95,0.00,,---,0.00,VWS V13.01,2013-01-03 12:37:00,
2013-01-03 07:39:00,59.2,57.8,30.08,WSW,245,0.0,0.0,95,0.00,,---,0.00,VWS V13.01,2013-01-03 12:39:00,
2013-01-03 08:07:00,59.8,58.7,30.09,WSW,245,0.0,1.0,96,0.00,,---,0.00,VWS V13.01,2013-01-03 13:07:00,
2013-01-03 08:09:00,59.6,58.5,30.09,WSW,245,0.0,0.0,96,0.00,,---,0.00,VWS V13.01,2013-01-03 13:09:00,
2013-01-03 08:37:00,61.1,60.0,30.10,WSW,245,0.0,0.0,96,0.00,,---,0.00,VWS V13.01,2013-01-03 13:37:00,
2013-01-03 08:39:00,60.8,59.7,30.09,WSW,245,0.0,1.0,96,0.00,,---,0.00,VWS V13.01,2013-01-03 13:39:00,
2013-01-03 09:07:00,62.3,61.2,30.11,NNW,344,1.0,5.0,96,0.00,,---,0.00,VWS V13.01,2013-01-03 14:07:00,
2013-01-03 09:09:00,62.1,61.0,30.10,NNW,337,3.0,5.0,96,0.00,,---,0.00,VWS V13.01,2013-01-03 14:09:00,
2013-01-03 09:37:00,63.1,62.2,30.11,North,9,4.0,5.0,97,0.00,,---,0.00,VWS V13.01,2013-01-03 14:37:00,
2013-01-03 09:39:00,63.1,61.9,30.11,North,355,2.0,5.0,96,0.00,,---,0.00,VWS V13.01,2013-01-03 14:39:00,
2013-01-03 10:07:00,63.6,62.7,30.11,NNE,15,0.0,0.0,97,0.00,,---,0.00,VWS V13.01,2013-01-03 15:07:00,
2013-01-03 10:09:00,63.5,62.6,30.11,NNE,15,0.0,7.0,97,0.00,,---,0.00,VWS V13.01,2013-01-03 15:09:00,
2013-01-03 10:37:00,64.3,63.4,30.11,NNE,15,0.0,0.0,97,0.00,,---,0.00,VWS V13.01,2013-01-03 15:37:00,
2013-01-03 10:39:00,64.2,63.3,30.11,NNE,15,0.0,1.0,97,0.00,,---,0.00,VWS V13.01,2013-01-03 15:39:00,
2013-01-03 11:07:00,65.5,64.3,30.10,NNE,15,0.0,0.0,96,0.00,,---,0.00,VWS V13.01,2013-01-03 16:07:00,
2013-01-03 11:09:00,65.1,64.2,30.10,NNE,15,0.0,0.0,97,0.00,,---,0.00,VWS V13.01,2013-01-03 16:09:00,
2013-01-03 11:37:00,70.2,67.4,30.10,NNE,13,0.0,0.0,91,0.00,,---,0.00,VWS V13.01,2013-01-03 16:37:00,
2013-01-03 11:39:00,68.8,67.0,30.10,NNE,17,0.0,0.0,94,0.00,,---,0.00,VWS V13.01,2013-01-03 16:39:00,
2013-01-03 12:07:00,70.3,65.6,30.08,NW,311,5.0,7.0,85,0.00,,---,0.00,VWS V13.01,2013-01-03 17:07:00,
2013-01-03 12:09:00,71.2,66.5,30.09,North,5,4.0,9.0,85,0.00,,---,0.00,VWS V13.01,2013-01-03 17:09:00,
2013-01-03 12:39:00,70.6,66.2,30.07,NNW,331,0.0,7.0,86,0.00,,---,0.00,VWS V13.01,2013-01-03 17:39:00,
2013-01-03 12:47:00,71.2,66.8,30.07,NNE,15,0.0,7.0,86,0.00,,---,0.00,VWS V13.01,2013-01-03 17:47:00,
2013-01-03 13:09:00,72.6,66.8,30.06,North,355,0.0,11.0,82,0.00,,---,0.00,VWS V13.01,2013-01-03 18:09:00,
2013-01-03 13:17:00,73.5,66.6,30.05,NNW,327,5.0,6.0,79,0.00,,---,0.00,VWS V13.01,2013-01-03 18:17:00,
2013-01-03 13:39:00,75.2,66.3,30.04,NNW,329,1.0,6.0,74,0.00,,---,0.00,VWS V13.01,2013-01-03 18:39:00,
2013-01-03 13:47:00,75.3,66.8,30.04,NW,317,0.0,5.0,75,0.00,,---,0.00,VWS V13.01,2013-01-03 18:47:00,
2013-01-03 14:09:00,76.2,65.3,30.04,North,9,0.0,6.0,69,0.00,,---,0.00,VWS V13.01,2013-01-03 19:09:00,
2013-01-03 14:17:00,75.6,65.5,30.03,North,9,0.0,1.0,71,0.00,,---,0.00,VWS V13.01,2013-01-03 19:17:00,
2013-01-03 15:09:00,75.3,66.4,30.05,NE,40,4.0,9.0,74,0.00,,---,0.00,VWS V13.01,2013-01-03 20:09:00,
2013-01-03 15:17:00,75.4,66.5,30.04,North,10,4.0,6.0,74,0.00,,---,0.00,VWS V13.01,2013-01-03 20:17:00,
2013-01-03 15:39:00,75.8,66.1,30.05,North,9,0.0,11.0,72,0.00,,---,0.00,VWS V13.01,2013-01-03 20:39:00,
2013-01-03 15:47:00,75.6,65.9,30.05,NE,36,7.0,9.0,72,0.00,,---,0.00,VWS V13.01,2013-01-03 20:47:00,
2013-01-03 16:09:00,74.3,66.2,30.06,NE,48,6.0,10.0,76,0.00,,---,0.00,VWS V13.01,2013-01-03 21:09:00,
2013-01-03 16:17:00,73.9,65.9,30.06,NE,45,5.0,10.0,76,0.00,,---,0.00,VWS V13.01,2013-01-03 21:17:00,
2013-01-03 16:39:00,72.7,65.8,30.07,NE,46,6.0,12.0,79,0.00,,---,0.00,VWS V13.01,2013-01-03 21:39:00,
2013-01-03 16:47:00,72.1,65.6,30.07,ENE,72,7.0,12.0,80,0.00,,---,0.00,VWS V13.01,2013-01-03 21:47:00,
2013-01-03 17:09:00,71.2,65.4,30.08,ENE,78,5.0,12.0,82,0.00,,---,0.00,VWS V13.01,2013-01-03 22:09:00,
2013-01-03 17:17:00,70.7,65.6,30.08,ENE,57,6.0,15.0,84,0.00,,---,0.00,VWS V13.01,2013-01-03 22:17:00,
2013-01-03 17:39:00,69.8,65.4,30.08,ENE,69,5.0,15.0,86,0.00,,---,0.00,VWS V13.01,2013-01-03 22:39:00,
2013-01-03 17:47:00,69.4,65.0,30.08,ENE,71,5.0,11.0,86,0.00,,---,0.00,VWS V13.01,2013-01-03 22:47:00,
2013-01-03 18:09:00,68.8,64.8,30.10,ENE,70,3.0,12.0,87,0.00,,---,0.00,VWS V13.01,2013-01-03 23:09:00,
2013-01-03 18:17:00,68.4,64.4,30.10,ENE,68,9.0,10.0,87,0.00,,---,0.00,VWS V13.01,2013-01-03 23:17:00,
2013-01-03 18:39:00,67.6,63.9,30.10,NNE,24,6.0,12.0,88,0.00,,---,0.00,VWS V13.01,2013-01-03 23:39:00,
2013-01-03 18:47:00,67.3,63.6,30.11,NE,50,10.0,12.0,88,0.00,,---,0.00,VWS V13.01,2013-01-03 23:47:00,
2013-01-03 19:09:00,66.3,63.0,30.13,ENE,69,5.0,14.0,89,0.00,,---,0.00,VWS V13.01,2013-01-04 00:09:00,
2013-01-03 19:17:00,66.1,62.8,30.12,ENE,72,6.0,9.0,89,0.00,,---,0.00,VWS V13.01,2013-01-04 00:17:00,
2013-01-03 19:39:00,65.6,62.3,30.13,NE,46,10.0,13.0,89,0.00,,---,0.00,VWS V13.01,2013-01-04 00:39:00,
2013-01-03 19:47:00,65.6,62.6,30.13,ENE,67,7.0,10.0,90,0.00,,---,0.00,VWS V13.01,2013-01-04 00:47:00,
2013-01-03 20:09:00,65.3,62.3,30.14,NNE,32,3.0,13.0,90,0.00,,---,0.00,VWS V13.01,2013-01-04 01:09:00,
2013-01-03 20:17:00,65.3,62.3,30.14,NE,42,3.0,12.0,90,0.00,,---,0.00,VWS V13.01,2013-01-04 01:17:00,
2013-01-03 20:39:00,65.2,62.2,30.14,ENE,63,5.0,13.0,90,0.00,,---,0.00,VWS V13.01,2013-01-04 01:39:00,
2013-01-03 20:48:00,65.2,62.2,30.14,NNE,30,1.0,12.0,90,0.00,,---,0.00,VWS V13.01,2013-01-04 01:48:00,
2013-01-03 21:09:00,65.2,62.2,30.15,NE,44,5.0,12.0,90,0.00,,---,0.00,VWS V13.01,2013-01-04 02:09:00,
2013-01-03 21:18:00,65.2,62.2,30.15,NNE,30,6.0,7.0,90,0.00,,---,0.00,VWS V13.01,2013-01-04 02:18:00,
2013-01-03 21:38:00,64.7,61.7,30.16,North,5,5.0,11.0,90,0.00,,---,0.00,VWS V13.01,2013-01-04 02:38:00,
2013-01-03 21:39:00,64.8,61.8,30.16,North,360,2.0,10.0,90,0.00,,---,0.00,VWS V13.01,2013-01-04 02:39:00,
2013-01-03 22:08:00,63.9,61.5,30.16,North,355,0.0,7.0,92,0.00,,---,0.00,VWS V13.01,2013-01-04 03:08:00,
2013-01-03 22:09:00,64.1,61.4,30.16,NNE,18,6.0,11.0,91,0.00,,---,0.00,VWS V13.01,2013-01-04 03:09:00,
2013-01-03 22:38:00,63.1,60.7,30.15,NNE,29,0.0,4.0,92,0.00,,---,0.00,VWS V13.01,2013-01-04 03:38:00,
2013-01-03 22:39:00,63.2,60.8,30.15,North,360,0.0,7.0,92,0.00,,---,0.00,VWS V13.01,2013-01-04 03:39:00,
2013-01-03 23:08:00,63.0,61.0,30.16,NNW,341,5.0,5.0,93,0.00,,---,0.00,VWS V13.01,2013-01-04 04:08:00,
2013-01-03 23:09:00,63.0,61.0,30.16,North,355,0.0,4.0,93,0.00,,---,0.00,VWS V13.01,2013-01-04 04:09:00,
2013-01-03 23:38:00,63.0,61.2,30.15,NNE,29,2.0,11.0,94,0.00,,---,0.00,VWS V13.01,2013-01-04 04:38:00,
2013-01-03 23:39:00,62.8,61.0,30.15,NE,34,5.0,7.0,94,0.00,,---,0.00,VWS V13.01,2013-01-04 04:39:00,